sensor_id;sensor_type;location;lat;lon;timestamp;pressure;altitude;pressure_sealevel;temperature;humidity
76847;BME280;65813;49.546;8.644;2023-05-02T00:01:40;100696.72;;;14.25;65.88
76847;BME280;65813;49.546;8.644;2023-05-02T00:05:41;100693.75;;;14.28;65.64
76847;BME280;65813;49.546;8.644;2023-05-02T00:09:41;100687.38;;;14.19;66.11
76847;BME280;65813;49.546;8.644;2023-05-02T00:13:41;100686.78;;;14.15;65.92
76847;BME280;65813;49.546;8.644;2023-05-02T00:17:43;100690.31;;;14.16;66.04
76847;BME280;65813;49.546;8.644;2023-05-02T00:21:46;100691.03;;;14.07;66.69
76847;BME280;65813;49.546;8.644;2023-05-02T00:25:47;100681.41;;;13.73;68.62
76847;BME280;65813;49.546;8.644;2023-05-02T00:29:47;100683.66;;;13.99;67.23
76847;BME280;65813;49.546;8.644;2023-05-02T00:33:47;100696.91;;;14.01;67.16
76847;BME280;65813;49.546;8.644;2023-05-02T00:37:48;100705.56;;;13.93;67.42
76847;BME280;65813;49.546;8.644;2023-05-02T00:41:48;100706.31;;;13.95;67.42
76847;BME280;65813;49.546;8.644;2023-05-02T00:45:49;100712.72;;;13.72;68.63
76847;BME280;65813;49.546;8.644;2023-05-02T00:49:49;100710.50;;;13.77;67.74
76847;BME280;65813;49.546;8.644;2023-05-02T00:53:50;100702.72;;;13.74;67.99
76847;BME280;65813;49.546;8.644;2023-05-02T00:57:51;100711.25;;;13.68;68.26
76847;BME280;65813;49.546;8.644;2023-05-02T01:06:27;100714.91;;;13.56;67.89
76847;BME280;65813;49.546;8.644;2023-05-02T01:11:11;100711.38;;;13.55;67.67
76847;BME280;65813;49.546;8.644;2023-05-02T01:15:16;100721.38;;;13.42;67.88
76847;BME280;65813;49.546;8.644;2023-05-02T01:19:25;100731.22;;;13.42;68.03
76847;BME280;65813;49.546;8.644;2023-05-02T01:31:53;100738.75;;;13.14;69.02
76847;BME280;65813;49.546;8.644;2023-05-02T01:35:56;100741.53;;;13.24;68.09
76847;BME280;65813;49.546;8.644;2023-05-02T01:39:58;100745.91;;;13.14;68.36
76847;BME280;65813;49.546;8.644;2023-05-02T01:44:01;100751.28;;;13.14;68.64
76847;BME280;65813;49.546;8.644;2023-05-02T01:48:05;100760.72;;;13.07;68.60
76847;BME280;65813;49.546;8.644;2023-05-02T01:52:07;100763.38;;;13.07;69.12
76847;BME280;65813;49.546;8.644;2023-05-02T01:56:11;100771.31;;;13.08;68.93
76847;BME280;65813;49.546;8.644;2023-05-02T02:00:12;100772.81;;;13.12;68.78
76847;BME280;65813;49.546;8.644;2023-05-02T02:04:16;100781.50;;;13.03;68.84
76847;BME280;65813;49.546;8.644;2023-05-02T02:08:18;100785.41;;;12.76;70.75
76847;BME280;65813;49.546;8.644;2023-05-02T02:12:38;100785.84;;;12.82;70.51
76847;BME280;65813;49.546;8.644;2023-05-02T02:16:40;100791.19;;;12.82;70.52
76847;BME280;65813;49.546;8.644;2023-05-02T02:20:42;100794.66;;;13.06;69.38
76847;BME280;65813;49.546;8.644;2023-05-02T02:24:45;100806.19;;;13.07;69.63
76847;BME280;65813;49.546;8.644;2023-05-02T02:28:47;100805.03;;;12.87;70.54
76847;BME280;65813;49.546;8.644;2023-05-02T02:32:47;100810.19;;;13.01;69.48
76847;BME280;65813;49.546;8.644;2023-05-02T02:36:56;100811.97;;;12.90;69.77
76847;BME280;65813;49.546;8.644;2023-05-02T02:41:12;100819.88;;;12.91;69.22
76847;BME280;65813;49.546;8.644;2023-05-02T02:45:36;100824.94;;;12.83;69.63
76847;BME280;65813;49.546;8.644;2023-05-02T02:49:49;100822.47;;;12.69;70.42
76847;BME280;65813;49.546;8.644;2023-05-02T03:02:16;100825.66;;;12.74;69.29
76847;BME280;65813;49.546;8.644;2023-05-02T03:06:17;100833.28;;;12.44;70.65
76847;BME280;65813;49.546;8.644;2023-05-02T03:10:18;100834.09;;;12.57;70.04
76847;BME280;65813;49.546;8.644;2023-05-02T03:14:18;100829.38;;;12.24;72.18
76847;BME280;65813;49.546;8.644;2023-05-02T03:18:19;100836.22;;;12.52;69.75
76847;BME280;65813;49.546;8.644;2023-05-02T03:22:19;100839.97;;;12.26;70.17
76847;BME280;65813;49.546;8.644;2023-05-02T03:26:19;100846.81;;;12.17;71.79
76847;BME280;65813;49.546;8.644;2023-05-02T03:30:20;100851.53;;;12.26;70.38
76847;BME280;65813;49.546;8.644;2023-05-02T03:34:20;100848.63;;;12.29;69.66
76847;BME280;65813;49.546;8.644;2023-05-02T03:38:21;100854.91;;;12.28;69.81
76847;BME280;65813;49.546;8.644;2023-05-02T03:42:21;100855.78;;;12.29;69.83
76847;BME280;65813;49.546;8.644;2023-05-02T03:46:22;100869.53;;;11.99;70.33
76847;BME280;65813;49.546;8.644;2023-05-02T03:50:22;100871.47;;;11.84;70.57
76847;BME280;65813;49.546;8.644;2023-05-02T03:54:22;100872.31;;;11.97;70.49
76847;BME280;65813;49.546;8.644;2023-05-02T03:58:23;100874.53;;;11.65;73.35
76847;BME280;65813;49.546;8.644;2023-05-02T04:02:24;100894.31;;;11.88;70.69
76847;BME280;65813;49.546;8.644;2023-05-02T04:06:25;100890.66;;;11.39;73.23
76847;BME280;65813;49.546;8.644;2023-05-02T04:10:25;100895.56;;;11.70;71.92
76847;BME280;65813;49.546;8.644;2023-05-02T04:14:26;100910.13;;;11.91;70.56
76847;BME280;65813;49.546;8.644;2023-05-02T04:18:26;100909.44;;;11.62;71.87
76847;BME280;65813;49.546;8.644;2023-05-02T04:22:26;100931.25;;;11.94;70.63
76847;BME280;65813;49.546;8.644;2023-05-02T04:26:27;100939.50;;;11.79;71.62
76847;BME280;65813;49.546;8.644;2023-05-02T04:30:27;100944.09;;;11.89;71.31
76847;BME280;65813;49.546;8.644;2023-05-02T04:34:28;100945.06;;;11.88;71.50
76847;BME280;65813;49.546;8.644;2023-05-02T04:38:28;100947.81;;;11.87;71.59
76847;BME280;65813;49.546;8.644;2023-05-02T04:42:28;100956.03;;;11.84;71.76
76847;BME280;65813;49.546;8.644;2023-05-02T04:46:28;100959.22;;;11.76;73.31
76847;BME280;65813;49.546;8.644;2023-05-02T04:50:29;100965.59;;;11.61;73.44
76847;BME280;65813;49.546;8.644;2023-05-02T04:54:32;100965.00;;;11.83;73.27
76847;BME280;65813;49.546;8.644;2023-05-02T04:58:33;100977.06;;;11.24;76.31
76847;BME280;65813;49.546;8.644;2023-05-02T05:02:34;100975.81;;;11.42;75.94
76847;BME280;65813;49.546;8.644;2023-05-02T05:06:34;100976.06;;;11.64;74.46
76847;BME280;65813;49.546;8.644;2023-05-02T05:10:35;100988.47;;;11.65;75.37
76847;BME280;65813;49.546;8.644;2023-05-02T05:14:35;100993.63;;;11.93;73.11
76847;BME280;65813;49.546;8.644;2023-05-02T05:18:35;100999.28;;;12.01;72.88
76847;BME280;65813;49.546;8.644;2023-05-02T05:22:39;101003.88;;;11.87;74.45
76847;BME280;65813;49.546;8.644;2023-05-02T05:26:40;101014.97;;;11.93;72.90
76847;BME280;65813;49.546;8.644;2023-05-02T05:30:40;101020.00;;;12.10;73.48
76847;BME280;65813;49.546;8.644;2023-05-02T05:34:41;101025.91;;;12.03;75.12
76847;BME280;65813;49.546;8.644;2023-05-02T05:38:41;101029.22;;;12.19;72.57
76847;BME280;65813;49.546;8.644;2023-05-02T05:42:42;101047.06;;;12.19;72.75
76847;BME280;65813;49.546;8.644;2023-05-02T05:46:42;101052.50;;;12.17;72.23
76847;BME280;65813;49.546;8.644;2023-05-02T05:50:43;101053.56;;;12.14;71.79
76847;BME280;65813;49.546;8.644;2023-05-02T05:54:45;101056.66;;;12.08;72.27
76847;BME280;65813;49.546;8.644;2023-05-02T05:58:46;101058.38;;;12.09;72.58
76847;BME280;65813;49.546;8.644;2023-05-02T06:02:46;101067.78;;;12.15;71.76
76847;BME280;65813;49.546;8.644;2023-05-02T06:06:46;101057.75;;;12.19;71.39
76847;BME280;65813;49.546;8.644;2023-05-02T06:10:47;101065.31;;;12.12;72.36
76847;BME280;65813;49.546;8.644;2023-05-02T06:14:47;101079.97;;;12.06;73.17
76847;BME280;65813;49.546;8.644;2023-05-02T06:18:49;101084.09;;;11.85;73.38
76847;BME280;65813;49.546;8.644;2023-05-02T06:22:50;101084.81;;;11.87;74.02
76847;BME280;65813;49.546;8.644;2023-05-02T06:26:51;101093.03;;;11.84;74.14
76847;BME280;65813;49.546;8.644;2023-05-02T06:30:58;101090.88;;;12.16;71.85
76847;BME280;65813;49.546;8.644;2023-05-02T06:35:00;101092.16;;;12.23;72.50
76847;BME280;65813;49.546;8.644;2023-05-02T06:39:00;101098.56;;;12.33;71.60
76847;BME280;65813;49.546;8.644;2023-05-02T06:43:00;101105.41;;;12.50;71.20
76847;BME280;65813;49.546;8.644;2023-05-02T06:47:03;101103.91;;;12.46;72.42
76847;BME280;65813;49.546;8.644;2023-05-02T06:51:03;101117.59;;;12.54;70.82
76847;BME280;65813;49.546;8.644;2023-05-02T06:55:04;101116.00;;;12.64;70.67
76847;BME280;65813;49.546;8.644;2023-05-02T06:59:04;101121.00;;;12.81;69.77
76847;BME280;65813;49.546;8.644;2023-05-02T07:03:05;101123.59;;;12.57;71.25
76847;BME280;65813;49.546;8.644;2023-05-02T07:07:05;101129.97;;;12.30;72.32
76847;BME280;65813;49.546;8.644;2023-05-02T07:11:05;101132.44;;;12.33;72.42
76847;BME280;65813;49.546;8.644;2023-05-02T07:15:06;101131.88;;;12.28;72.19
76847;BME280;65813;49.546;8.644;2023-05-02T07:19:07;101138.09;;;12.28;72.46
76847;BME280;65813;49.546;8.644;2023-05-02T07:23:07;101129.84;;;12.19;73.51
76847;BME280;65813;49.546;8.644;2023-05-02T07:27:12;101131.28;;;12.49;72.78
76847;BME280;65813;49.546;8.644;2023-05-02T07:31:12;101133.09;;;12.49;73.86
76847;BME280;65813;49.546;8.644;2023-05-02T07:35:12;101137.38;;;12.64;72.89
76847;BME280;65813;49.546;8.644;2023-05-02T07:39:13;101137.16;;;12.54;73.79
76847;BME280;65813;49.546;8.644;2023-05-02T07:43:13;101128.69;;;12.73;72.64
76847;BME280;65813;49.546;8.644;2023-05-02T07:47:15;101129.56;;;12.61;73.53
76847;BME280;65813;49.546;8.644;2023-05-02T07:51:15;101132.66;;;12.80;73.08
76847;BME280;65813;49.546;8.644;2023-05-02T07:55:15;101135.63;;;13.01;72.27
76847;BME280;65813;49.546;8.644;2023-05-02T07:59:16;101137.47;;;12.88;73.05
76847;BME280;65813;49.546;8.644;2023-05-02T08:03:16;101141.50;;;13.06;72.71
76847;BME280;65813;49.546;8.644;2023-05-02T08:07:16;101144.63;;;13.12;71.66
76847;BME280;65813;49.546;8.644;2023-05-02T08:11:17;101145.59;;;13.11;70.75
76847;BME280;65813;49.546;8.644;2023-05-02T08:15:17;101153.72;;;13.23;69.66
76847;BME280;65813;49.546;8.644;2023-05-02T08:19:17;101158.38;;;13.32;68.19
76847;BME280;65813;49.546;8.644;2023-05-02T08:23:18;101151.94;;;13.34;68.52
76847;BME280;65813;49.546;8.644;2023-05-02T08:27:18;101152.44;;;13.52;68.03
76847;BME280;65813;49.546;8.644;2023-05-02T08:31:19;101157.53;;;13.91;69.14
76847;BME280;65813;49.546;8.644;2023-05-02T08:35:19;101157.00;;;13.86;67.18
76847;BME280;65813;49.546;8.644;2023-05-02T08:39:20;101159.06;;;13.83;66.97
76847;BME280;65813;49.546;8.644;2023-05-02T08:43:20;101161.72;;;13.83;67.50
76847;BME280;65813;49.546;8.644;2023-05-02T08:47:21;101169.28;;;13.78;66.95
76847;BME280;65813;49.546;8.644;2023-05-02T08:51:23;101170.63;;;13.83;67.15
76847;BME280;65813;49.546;8.644;2023-05-02T08:55:24;101172.81;;;13.78;67.32
76847;BME280;65813;49.546;8.644;2023-05-02T08:59:26;101184.25;;;13.80;67.48
76847;BME280;65813;49.546;8.644;2023-05-02T09:07:27;101199.47;;;14.03;66.65
76847;BME280;65813;49.546;8.644;2023-05-02T09:11:27;101198.28;;;13.84;66.78
76847;BME280;65813;49.546;8.644;2023-05-02T09:15:28;101206.84;;;13.76;67.47
76847;BME280;65813;49.546;8.644;2023-05-02T09:19:28;101209.44;;;13.78;67.29
76847;BME280;65813;49.546;8.644;2023-05-02T09:23:41;101217.81;;;13.73;67.83
76847;BME280;65813;49.546;8.644;2023-05-02T09:27:55;101223.69;;;13.78;67.40
76847;BME280;65813;49.546;8.644;2023-05-02T09:31:56;101227.63;;;13.85;67.12
76847;BME280;65813;49.546;8.644;2023-05-02T09:35:56;101227.50;;;13.87;66.24
76847;BME280;65813;49.546;8.644;2023-05-02T09:40:06;101229.38;;;13.97;66.95
76847;BME280;65813;49.546;8.644;2023-05-02T09:44:09;101224.09;;;14.08;65.91
76847;BME280;65813;49.546;8.644;2023-05-02T09:48:10;101237.88;;;14.15;65.63
76847;BME280;65813;49.546;8.644;2023-05-02T09:52:14;101238.50;;;14.18;65.26
76847;BME280;65813;49.546;8.644;2023-05-02T09:56:17;101241.81;;;14.22;63.96
76847;BME280;65813;49.546;8.644;2023-05-02T10:00:17;101238.97;;;14.12;62.98
76847;BME280;65813;49.546;8.644;2023-05-02T10:04:19;101245.38;;;13.99;63.78
76847;BME280;65813;49.546;8.644;2023-05-02T10:08:21;101248.59;;;13.91;64.16
76847;BME280;65813;49.546;8.644;2023-05-02T10:12:23;101244.34;;;14.12;64.41
76847;BME280;65813;49.546;8.644;2023-05-02T10:16:27;101247.81;;;14.26;64.02
76847;BME280;65813;49.546;8.644;2023-05-02T10:20:34;101237.63;;;14.31;63.28
76847;BME280;65813;49.546;8.644;2023-05-02T10:24:35;101240.28;;;14.89;62.45
76847;BME280;65813;49.546;8.644;2023-05-02T10:28:37;101230.38;;;14.90;61.60
76847;BME280;65813;49.546;8.644;2023-05-02T10:32:38;101232.38;;;15.10;62.66
76847;BME280;65813;49.546;8.644;2023-05-02T10:36:39;101226.84;;;15.00;62.52
76847;BME280;65813;49.546;8.644;2023-05-02T10:40:40;101232.25;;;15.34;61.93
76847;BME280;65813;49.546;8.644;2023-05-02T10:44:42;101238.59;;;15.44;61.54
76847;BME280;65813;49.546;8.644;2023-05-02T10:48:59;101233.47;;;15.18;59.72
76847;BME280;65813;49.546;8.644;2023-05-02T10:53:23;101238.09;;;15.28;59.17
76847;BME280;65813;49.546;8.644;2023-05-02T10:57:23;101228.81;;;15.76;58.66
76847;BME280;65813;49.546;8.644;2023-05-02T11:05:25;101226.78;;;15.69;58.27
76847;BME280;65813;49.546;8.644;2023-05-02T11:09:30;101212.66;;;15.98;57.81
76847;BME280;65813;49.546;8.644;2023-05-02T11:13:50;101216.16;;;16.10;57.59
76847;BME280;65813;49.546;8.644;2023-05-02T11:18:12;101222.44;;;15.88;58.90
76847;BME280;65813;49.546;8.644;2023-05-02T11:26:26;101225.34;;;15.96;57.74
76847;BME280;65813;49.546;8.644;2023-05-02T11:30:42;101222.53;;;15.98;57.45
76847;BME280;65813;49.546;8.644;2023-05-02T11:34:43;101218.56;;;16.45;57.88
76847;BME280;65813;49.546;8.644;2023-05-02T11:38:43;101229.38;;;16.34;56.02
76847;BME280;65813;49.546;8.644;2023-05-02T11:42:43;101227.41;;;16.36;54.26
76847;BME280;65813;49.546;8.644;2023-05-02T11:46:44;101224.47;;;16.39;54.97
76847;BME280;65813;49.546;8.644;2023-05-02T11:50:46;101221.19;;;16.35;54.67
76847;BME280;65813;49.546;8.644;2023-05-02T11:54:47;101217.59;;;16.46;53.84
76847;BME280;65813;49.546;8.644;2023-05-02T11:58:59;101208.22;;;17.33;58.13
76847;BME280;65813;49.546;8.644;2023-05-02T12:03:00;101207.91;;;16.96;53.27
76847;BME280;65813;49.546;8.644;2023-05-02T12:07:01;101209.34;;;16.79;54.23
76847;BME280;65813;49.546;8.644;2023-05-02T12:11:01;101201.56;;;16.24;54.81
76847;BME280;65813;49.546;8.644;2023-05-02T12:15:06;101211.16;;;16.05;55.54
76847;BME280;65813;49.546;8.644;2023-05-02T12:19:07;101212.63;;;16.09;56.38
76847;BME280;65813;49.546;8.644;2023-05-02T12:23:08;101218.97;;;16.08;55.86
76847;BME280;65813;49.546;8.644;2023-05-02T12:27:13;101221.41;;;16.11;56.19
76847;BME280;65813;49.546;8.644;2023-05-02T12:31:13;101230.94;;;16.04;55.93
76847;BME280;65813;49.546;8.644;2023-05-02T12:35:20;101229.47;;;16.00;55.96
76847;BME280;65813;49.546;8.644;2023-05-02T12:39:41;101227.25;;;16.16;55.92
76847;BME280;65813;49.546;8.644;2023-05-02T12:43:45;101226.69;;;16.86;54.35
76847;BME280;65813;49.546;8.644;2023-05-02T12:47:46;101226.94;;;17.04;52.95
76847;BME280;65813;49.546;8.644;2023-05-02T12:51:52;101223.19;;;17.16;51.64
76847;BME280;65813;49.546;8.644;2023-05-02T12:56:01;101213.34;;;17.36;51.70
76847;BME280;65813;49.546;8.644;2023-05-02T13:00:03;101208.72;;;17.47;51.65
76847;BME280;65813;49.546;8.644;2023-05-02T13:04:04;101218.00;;;17.64;50.91
76847;BME280;65813;49.546;8.644;2023-05-02T13:08:04;101206.94;;;17.57;49.87
76847;BME280;65813;49.546;8.644;2023-05-02T13:12:05;101205.38;;;17.34;49.48
76847;BME280;65813;49.546;8.644;2023-05-02T13:16:06;101208.94;;;17.04;48.85
76847;BME280;65813;49.546;8.644;2023-05-02T13:20:07;101209.47;;;17.59;48.16
76847;BME280;65813;49.546;8.644;2023-05-02T13:24:08;101208.09;;;17.74;48.24
76847;BME280;65813;49.546;8.644;2023-05-02T13:28:08;101212.94;;;17.80;48.68
76847;BME280;65813;49.546;8.644;2023-05-02T13:32:09;101199.06;;;17.85;48.20
76847;BME280;65813;49.546;8.644;2023-05-02T13:36:09;101191.84;;;18.43;45.80
76847;BME280;65813;49.546;8.644;2023-05-02T13:40:10;101201.75;;;17.75;45.95
76847;BME280;65813;49.546;8.644;2023-05-02T13:44:10;101194.41;;;18.15;47.28
76847;BME280;65813;49.546;8.644;2023-05-02T13:48:11;101190.16;;;18.23;45.66
76847;BME280;65813;49.546;8.644;2023-05-02T13:52:11;101200.06;;;18.32;43.85
76847;BME280;65813;49.546;8.644;2023-05-02T13:56:11;101193.94;;;17.82;43.94
76847;BME280;65813;49.546;8.644;2023-05-02T14:00:12;101200.44;;;17.39;44.98
76847;BME280;65813;49.546;8.644;2023-05-02T14:04:13;101197.09;;;17.16;46.47
76847;BME280;65813;49.546;8.644;2023-05-02T14:08:13;101204.00;;;17.09;48.18
76847;BME280;65813;49.546;8.644;2023-05-02T14:12:18;101207.19;;;17.24;48.63
76847;BME280;65813;49.546;8.644;2023-05-02T14:16:18;101213.94;;;17.09;51.75
76847;BME280;65813;49.546;8.644;2023-05-02T14:20:19;101217.94;;;16.73;53.06
76847;BME280;65813;49.546;8.644;2023-05-02T14:24:19;101216.38;;;16.71;53.46
76847;BME280;65813;49.546;8.644;2023-05-02T14:28:19;101212.03;;;16.79;53.14
76847;BME280;65813;49.546;8.644;2023-05-02T14:32:20;101215.22;;;17.14;53.72
76847;BME280;65813;49.546;8.644;2023-05-02T14:36:20;101226.50;;;16.99;52.10
76847;BME280;65813;49.546;8.644;2023-05-02T14:40:21;101215.09;;;16.86;51.42
76847;BME280;65813;49.546;8.644;2023-05-02T14:44:21;101228.66;;;16.84;51.92
76847;BME280;65813;49.546;8.644;2023-05-02T14:48:21;101224.06;;;16.75;51.35
76847;BME280;65813;49.546;8.644;2023-05-02T14:52:23;101232.84;;;16.77;50.04
76847;BME280;65813;49.546;8.644;2023-05-02T14:56:23;101223.06;;;16.76;50.06
76847;BME280;65813;49.546;8.644;2023-05-02T15:00:24;101226.44;;;16.89;50.62
76847;BME280;65813;49.546;8.644;2023-05-02T15:04:25;101230.53;;;16.93;48.69
76847;BME280;65813;49.546;8.644;2023-05-02T15:08:26;101223.66;;;17.00;48.26
76847;BME280;65813;49.546;8.644;2023-05-02T15:12:26;101226.81;;;16.85;47.42
76847;BME280;65813;49.546;8.644;2023-05-02T15:16:28;101236.19;;;16.70;48.84
76847;BME280;65813;49.546;8.644;2023-05-02T15:20:28;101238.47;;;16.53;49.40
76847;BME280;65813;49.546;8.644;2023-05-02T15:24:28;101241.84;;;16.35;49.02
76847;BME280;65813;49.546;8.644;2023-05-02T15:28:29;101245.00;;;16.40;49.33
76847;BME280;65813;49.546;8.644;2023-05-02T15:32:30;101250.03;;;16.33;49.21
76847;BME280;65813;49.546;8.644;2023-05-02T15:36:30;101255.97;;;16.48;50.28
76847;BME280;65813;49.546;8.644;2023-05-02T15:40:31;101255.97;;;16.48;51.06
76847;BME280;65813;49.546;8.644;2023-05-02T15:44:34;101246.91;;;16.60;50.89
76847;BME280;65813;49.546;8.644;2023-05-02T15:48:36;101243.75;;;16.76;51.40
76847;BME280;65813;49.546;8.644;2023-05-02T15:52:36;101240.34;;;16.94;50.91
76847;BME280;65813;49.546;8.644;2023-05-02T15:56:36;101247.75;;;17.02;50.15
76847;BME280;65813;49.546;8.644;2023-05-02T16:00:37;101242.81;;;16.86;49.47
76847;BME280;65813;49.546;8.644;2023-05-02T16:04:37;101250.97;;;17.16;49.95
76847;BME280;65813;49.546;8.644;2023-05-02T16:08:38;101248.72;;;17.22;49.35
76847;BME280;65813;49.546;8.644;2023-05-02T16:12:38;101256.34;;;17.16;48.35
76847;BME280;65813;49.546;8.644;2023-05-02T16:16:38;101254.16;;;17.10;47.82
76847;BME280;65813;49.546;8.644;2023-05-02T16:20:39;101249.25;;;17.15;46.95
76847;BME280;65813;49.546;8.644;2023-05-02T16:24:41;101249.25;;;17.15;47.86
76847;BME280;65813;49.546;8.644;2023-05-02T16:28:41;101251.13;;;17.25;46.91
76847;BME280;65813;49.546;8.644;2023-05-02T16:32:42;101247.53;;;17.14;47.18
76847;BME280;65813;49.546;8.644;2023-05-02T16:36:42;101243.97;;;17.14;47.66
76847;BME280;65813;49.546;8.644;2023-05-02T16:40:42;101248.97;;;17.18;47.09
76847;BME280;65813;49.546;8.644;2023-05-02T16:44:43;101250.41;;;17.23;47.88
76847;BME280;65813;49.546;8.644;2023-05-02T16:48:43;101251.13;;;17.25;48.67
76847;BME280;65813;49.546;8.644;2023-05-02T16:52:43;101253.78;;;17.15;48.57
76847;BME280;65813;49.546;8.644;2023-05-02T16:56:44;101252.47;;;17.09;48.79
76847;BME280;65813;49.546;8.644;2023-05-02T17:00:44;101249.06;;;17.07;48.87
76847;BME280;65813;49.546;8.644;2023-05-02T17:04:45;101260.25;;;17.03;49.00
76847;BME280;65813;49.546;8.644;2023-05-02T17:08:45;101255.94;;;17.00;49.52
76847;BME280;65813;49.546;8.644;2023-05-02T17:12:46;101261.97;;;16.93;49.64
76847;BME280;65813;49.546;8.644;2023-05-02T17:16:46;101256.50;;;16.94;49.48
76847;BME280;65813;49.546;8.644;2023-05-02T17:20:47;101262.94;;;16.82;49.57
76847;BME280;65813;49.546;8.644;2023-05-02T17:24:47;101266.91;;;16.67;49.29
76847;BME280;65813;49.546;8.644;2023-05-02T17:28:51;101264.50;;;16.64;49.88
76847;BME280;65813;49.546;8.644;2023-05-02T17:32:52;101272.56;;;16.53;50.64
76847;BME280;65813;49.546;8.644;2023-05-02T17:36:53;101278.72;;;16.44;50.85
76847;BME280;65813;49.546;8.644;2023-05-02T17:40:53;101283.19;;;16.34;50.46
76847;BME280;65813;49.546;8.644;2023-05-02T17:44:54;101290.06;;;16.15;50.82
76847;BME280;65813;49.546;8.644;2023-05-02T17:48:54;101289.38;;;16.02;51.17
76847;BME280;65813;49.546;8.644;2023-05-02T17:52:54;101306.09;;;15.95;51.69
76847;BME280;65813;49.546;8.644;2023-05-02T17:56:55;101302.97;;;15.79;51.56
76847;BME280;65813;49.546;8.644;2023-05-02T18:00:56;101310.88;;;15.69;51.34
76847;BME280;65813;49.546;8.644;2023-05-02T18:04:57;101306.34;;;15.58;51.22
76847;BME280;65813;49.546;8.644;2023-05-02T18:08:59;101310.84;;;15.47;51.02
76847;BME280;65813;49.546;8.644;2023-05-02T18:12:59;101306.56;;;15.33;51.13
76847;BME280;65813;49.546;8.644;2023-05-02T18:17:02;101303.97;;;15.21;51.34
76847;BME280;65813;49.546;8.644;2023-05-02T18:21:02;101310.03;;;15.00;51.68
76847;BME280;65813;49.546;8.644;2023-05-02T18:25:03;101319.50;;;14.82;52.53
76847;BME280;65813;49.546;8.644;2023-05-02T18:29:03;101327.84;;;14.66;52.59
76847;BME280;65813;49.546;8.644;2023-05-02T18:33:05;101325.56;;;14.49;52.62
76847;BME280;65813;49.546;8.644;2023-05-02T18:37:06;101341.88;;;14.46;53.11
76847;BME280;65813;49.546;8.644;2023-05-02T18:41:06;101346.41;;;14.33;53.62
76847;BME280;65813;49.546;8.644;2023-05-02T18:45:08;101353.53;;;14.22;54.00
76847;BME280;65813;49.546;8.644;2023-05-02T18:49:09;101363.94;;;14.13;54.36
76847;BME280;65813;49.546;8.644;2023-05-02T18:53:09;101368.38;;;14.02;54.32
76847;BME280;65813;49.546;8.644;2023-05-02T18:57:10;101372.88;;;14.01;54.74
76847;BME280;65813;49.546;8.644;2023-05-02T19:01:14;101383.84;;;13.86;54.79
76847;BME280;65813;49.546;8.644;2023-05-02T19:05:14;101388.09;;;13.76;54.84
76847;BME280;65813;49.546;8.644;2023-05-02T19:09:15;101393.25;;;13.66;54.53
76847;BME280;65813;49.546;8.644;2023-05-02T19:13:17;101406.44;;;13.56;54.50
76847;BME280;65813;49.546;8.644;2023-05-02T19:17:17;101409.13;;;13.44;54.74
76847;BME280;65813;49.546;8.644;2023-05-02T19:21:18;101417.44;;;13.39;54.29
76847;BME280;65813;49.546;8.644;2023-05-02T19:25:18;101425.13;;;13.31;54.28
76847;BME280;65813;49.546;8.644;2023-05-02T19:29:18;101427.06;;;13.29;54.87
76847;BME280;65813;49.546;8.644;2023-05-02T19:33:19;101436.25;;;13.25;54.95
76847;BME280;65813;49.546;8.644;2023-05-02T19:37:19;101445.44;;;13.21;55.15
76847;BME280;65813;49.546;8.644;2023-05-02T19:41:20;101457.44;;;13.15;55.66
76847;BME280;65813;49.546;8.644;2023-05-02T19:45:21;101457.00;;;13.09;56.13
76847;BME280;65813;49.546;8.644;2023-05-02T19:49:21;101469.88;;;13.02;56.70
76847;BME280;65813;49.546;8.644;2023-05-02T19:53:22;101470.22;;;12.84;57.20
76847;BME280;65813;49.546;8.644;2023-05-02T19:57:22;101473.97;;;12.81;57.24
76847;BME280;65813;49.546;8.644;2023-05-02T20:01:24;101478.50;;;12.93;57.02
76847;BME280;65813;49.546;8.644;2023-05-02T20:05:25;101486.84;;;12.89;57.29
76847;BME280;65813;49.546;8.644;2023-05-02T20:09:26;101481.56;;;12.87;57.74
76847;BME280;65813;49.546;8.644;2023-05-02T20:13:27;101488.78;;;12.73;57.91
76847;BME280;65813;49.546;8.644;2023-05-02T20:17:27;101484.41;;;12.72;58.46
76847;BME280;65813;49.546;8.644;2023-05-02T20:21:28;101488.47;;;12.77;58.88
76847;BME280;65813;49.546;8.644;2023-05-02T20:25:28;101502.47;;;12.68;59.19
76847;BME280;65813;49.546;8.644;2023-05-02T20:29:28;101503.69;;;12.48;60.55
76847;BME280;65813;49.546;8.644;2023-05-02T20:33:29;101512.16;;;12.69;60.03
76847;BME280;65813;49.546;8.644;2023-05-02T20:37:29;101512.56;;;12.63;60.80
76847;BME280;65813;49.546;8.644;2023-05-02T20:41:30;101509.44;;;12.42;61.24
76847;BME280;65813;49.546;8.644;2023-05-02T20:45:31;101512.31;;;12.53;60.76
76847;BME280;65813;49.546;8.644;2023-05-02T20:49:31;101515.66;;;12.29;61.56
76847;BME280;65813;49.546;8.644;2023-05-02T20:53:34;101511.84;;;12.33;61.04
76847;BME280;65813;49.546;8.644;2023-05-02T20:57:34;101517.00;;;12.36;60.66
76847;BME280;65813;49.546;8.644;2023-05-02T21:01:35;101521.84;;;12.72;58.91
76847;BME280;65813;49.546;8.644;2023-05-02T21:05:35;101516.97;;;12.50;58.02
76847;BME280;65813;49.546;8.644;2023-05-02T21:09:35;101518.13;;;12.46;57.88
76847;BME280;65813;49.546;8.644;2023-05-02T21:13:36;101522.31;;;12.50;58.04
76847;BME280;65813;49.546;8.644;2023-05-02T21:17:37;101531.88;;;12.54;57.83
76847;BME280;65813;49.546;8.644;2023-05-02T21:21:38;101527.69;;;12.50;57.97
76847;BME280;65813;49.546;8.644;2023-05-02T21:25:39;101543.72;;;12.50;57.72
76847;BME280;65813;49.546;8.644;2023-05-02T21:29:39;101535.69;;;12.50;57.89
76847;BME280;65813;49.546;8.644;2023-05-02T21:33:39;101537.13;;;12.41;58.25
76847;BME280;65813;49.546;8.644;2023-05-02T21:37:40;101544.47;;;12.38;58.21